Terminal Aerodrome Forecast
Issued by NWS

Current Version | Previous Version | Graphics & Text | Print | Product List | Glossary On
Versions: 1 2 3 4 5 6 7 8 9 10 11 12 13 14 15 16 17 18 19 20
000
FTUS41 KILN 241100
TAFLUK
TAF
KLUK 241134Z 2412/2512 00000KT 4SM BR SCT035
     FM241300 06005KT P6SM SCT040 BKN200
     FM250000 08004KT P6SM BKN200
     FM250600 00000KT 3SM BR SCT200
     FM250900 00000KT 1SM BR SCT060=

USA.gov is the U.S. government's official web portal to all federal, state and local government web resources and services.